Lodi, Missouri
Current Conditions -  °F | °C
As of 3:53 AM on Thursday 29 Jan 2015 (Local Time) from KPOF Reporting Station
Clear Clear  
Wind Chill: 51°   Ceiling: Unl
Heat Index: 51°   Visibility: 10mi
Dew Point: 40°   Wind: 13mph
Humidity: 66%   Direction: 230°SW
Pressure: 29.89"   Gusts: NA
Location:  37.26°N, 90.45°W
Report Text: KPOF 290953Z AUTO 23011KT 10SM CLR 11/04 A2989 RMK AO2 SLP122 T01060044
Loading
Personal Weather Stations






























Interactive Weather Map New forecast layout! Learn more

10-Day Weather Forecast

Advertisements
Track Severe Weather on mobile